Terminal Aerodrome Forecast
Issued by NWS Sioux Falls, SD

Home | Current Version | Previous Version | Text Only | Print | Product List | Glossary On
Versions: 1 2 3 4 5 6 7 8 9 10 11 12 13 14 15 16 17 18 19
000
FTUS43 KFSD 252322
TAFFSD
TAF
KFSD 252322Z 2600/2624 07010KT P6SM OVC008
     FM260500 07006KT P6SM OVC003
     FM260600 07005KT 4SM BR OVC003
     FM261500 04005KT P6SM OVC003
     FM261700 03005KT P6SM OVC008
     FM262000 01006KT P6SM OVC015=

USA.gov is the U.S. government's official web portal to all federal, state and local government web resources and services.